Medina, ND (58467)

5:32 AM CDT on July 30, 2016 (GMT -0500)
APRSWXNET | | Change Station

Elev 1640 ft 46.85 °N, 98.93 °W | Updated 28 minutes ago

Scattered Clouds
Scattered Clouds
61 °F
Feels Like 61 °F
N
0
Wind Variable Wind from SSE
Gusts 0.0 mph

Today
High -- | Low -- °F
--% Chance of Precip.
Yesterday
High -- | Low -- °F
Precip. -- in
Pressure 29.94 in
Visibility 10.0 miles
Clouds Scattered Clouds 7500 ft
Dew Point 59 °F
Humidity 93%
Rainfall in
Snow Depth Not available.
6:15 AM 9:11 PM
Waning Crescent, 14% visible
METAR KJMS 300956Z AUTO 18008KT 10SM SCT075 18/15 A2995 RMK AO2 SLP138 T01780150
Pressure 29.94 in
Visibility 10.0 miles
Clouds Scattered Clouds 7500 ft
Dew Point 59 °F
Humidity 93%
Rainfall in
Snow Depth Not available.
6:15 AM 9:11 PM
Waning Crescent, 14% visible
METAR KJMS 300956Z AUTO 18008KT 10SM SCT075 18/15 A2995 RMK AO2 SLP138 T01780150

10-Day Weather Forecast

Almanac

Astronomy

Jul. 30, 2016 Rise Set
Actual Time
Civil Twilight
Nautical Twilight
Astronomical Twilight
Moon
Length of Visible Light
Length of Day
Tomorrow will be .
, % of the Moon is Illuminated

Today's Extremes

State Highs State Lows

Community

WunderPhotos

Upload Photos

1,928,530 photos uploaded!

WunderBlog® & News

Nearby

Air Quality

  Air Quality AQ Index Pollutant
Not available.

Snow Depth

Station Depth Elevation

Earthquake Activity

City Distance Mag. Time & Date
Minimum magnitude displayed is 2.5.

Coastal Water Temperatures

Place Temperature

Stations

Nearby Weather Stations

Station Location Temp. Windchill Dew Point Humidity Wind Precip. Elev Updated Type
                   

Watches & Warnings

There are currently no watches in effect.